createdAt,value
2023-01-15T00:00:16.843Z,8.51
2023-01-15T00:01:16.356Z,8.50
2023-01-15T00:02:17.336Z,8.57
2023-01-15T00:03:17.039Z,8.63
2023-01-15T00:04:16.539Z,8.67
2023-01-15T00:05:17.070Z,8.72
2023-01-15T00:06:16.581Z,8.71
2023-01-15T00:07:17.064Z,8.65
2023-01-15T00:08:16.597Z,8.64
2023-01-15T00:09:17.142Z,8.65
2023-01-15T00:10:16.700Z,8.69
2023-01-15T00:11:17.229Z,8.68
2023-01-15T00:12:16.891Z,8.68
2023-01-15T00:13:16.400Z,8.69
2023-01-15T00:14:16.914Z,8.71
2023-01-15T00:15:16.421Z,8.68
2023-01-15T00:16:16.940Z,8.64
2023-01-15T00:17:16.496Z,8.63
2023-01-15T00:18:17.008Z,8.64
2023-01-15T00:19:16.495Z,8.64
2023-01-15T00:20:17.004Z,8.57
2023-01-15T00:21:16.518Z,8.63
2023-01-15T00:22:16.958Z,8.64
2023-01-15T00:23:16.481Z,8.63
2023-01-15T00:24:16.959Z,8.60
2023-01-15T00:25:16.433Z,8.61
2023-01-15T00:26:16.927Z,8.63
2023-01-15T00:27:16.450Z,8.64
2023-01-15T00:28:17.003Z,8.67
2023-01-15T00:29:16.528Z,8.65
2023-01-15T00:30:17.088Z,8.65
2023-01-15T00:31:16.617Z,8.63
2023-01-15T00:32:17.005Z,8.65
2023-01-15T00:33:16.549Z,8.65
2023-01-15T00:34:17.038Z,8.64
2023-01-15T00:35:16.647Z,8.68
2023-01-15T00:36:17.169Z,8.64
2023-01-15T00:37:16.649Z,8.67
2023-01-15T00:38:17.131Z,8.67
2023-01-15T00:39:16.639Z,8.65
2023-01-15T00:40:17.163Z,8.71
2023-01-15T00:41:16.665Z,8.75
2023-01-15T00:42:16.582Z,8.76
2023-01-15T00:43:17.079Z,8.74
2023-01-15T00:44:16.603Z,8.72
2023-01-15T00:45:17.109Z,8.74
2023-01-15T00:46:17.130Z,8.71
2023-01-15T00:47:16.730Z,8.71
2023-01-15T00:48:17.228Z,8.74
2023-01-15T00:49:16.724Z,8.76
2023-01-15T00:50:17.285Z,8.78
2023-01-15T00:51:16.802Z,8.79
2023-01-15T00:52:16.384Z,8.82
2023-01-15T00:53:16.870Z,8.79
2023-01-15T00:54:16.378Z,8.85
2023-01-15T00:55:16.895Z,8.85
2023-01-15T00:56:16.398Z,8.87
2023-01-15T00:57:16.895Z,8.85
2023-01-15T00:58:16.425Z,8.81
2023-01-15T00:59:16.948Z,8.87
2023-01-15T01:00:16.467Z,8.91
2023-01-15T01:01:17.102Z,8.94
2023-01-15T01:02:16.789Z,8.91
2023-01-15T01:03:16.556Z,8.91
2023-01-15T01:04:17.050Z,8.95
2023-01-15T01:05:16.522Z,8.95
2023-01-15T01:06:17.055Z,8.95
2023-01-15T01:07:16.554Z,8.94
2023-01-15T01:08:17.062Z,8.94
2023-01-15T01:09:16.568Z,8.98
2023-01-15T01:10:17.062Z,8.98
2023-01-15T01:11:16.561Z,8.95
2023-01-15T01:12:17.239Z,8.96
2023-01-15T01:13:16.740Z,8.98
2023-01-15T01:14:17.244Z,8.98
2023-01-15T01:15:16.753Z,8.98
2023-01-15T01:16:17.339Z,8.99
2023-01-15T01:17:16.950Z,9.02
2023-01-15T01:18:16.453Z,9.02
2023-01-15T01:19:17.337Z,9.06
2023-01-15T01:20:17.008Z,9.03
2023-01-15T01:21:16.541Z,9.05
2023-01-15T01:22:17.167Z,9.05
2023-01-15T01:23:16.680Z,9.06
2023-01-15T01:24:17.229Z,9.05
2023-01-15T01:25:16.748Z,9.05
2023-01-15T01:26:17.261Z,9.08
2023-01-15T01:27:16.780Z,9.09
2023-01-15T01:28:17.284Z,9.06
2023-01-15T01:29:16.792Z,9.08
2023-01-15T01:30:17.338Z,9.03
2023-01-15T01:31:16.885Z,9.03
2023-01-15T01:32:16.844Z,9.03
2023-01-15T01:33:16.363Z,9.06
2023-01-15T01:34:16.871Z,9.08
2023-01-15T01:35:16.377Z,9.08
2023-01-15T01:36:16.894Z,9.09
2023-01-15T01:37:16.385Z,9.12
2023-01-15T01:38:16.939Z,9.16
2023-01-15T01:39:16.432Z,9.16
2023-01-15T01:40:16.939Z,9.15
2023-01-15T01:41:16.428Z,9.18
2023-01-15T01:42:16.677Z,9.19
2023-01-15T01:43:17.155Z,9.26
2023-01-15T01:44:16.694Z,9.29
2023-01-15T01:45:17.208Z,9.30
2023-01-15T01:46:16.696Z,9.38
2023-01-15T01:47:17.196Z,9.36
2023-01-15T01:48:16.715Z,9.37
2023-01-15T01:49:17.236Z,9.37
2023-01-15T01:50:16.741Z,9.40
2023-01-15T01:51:17.214Z,9.38
2023-01-15T01:52:16.776Z,9.43
2023-01-15T01:53:17.315Z,9.40
2023-01-15T01:54:16.822Z,9.40
2023-01-15T01:55:16.343Z,9.40
2023-01-15T01:56:16.879Z,9.43
2023-01-15T01:57:16.380Z,9.46
2023-01-15T01:58:16.924Z,9.46
2023-01-15T01:59:16.419Z,9.44
2023-01-15T02:00:16.915Z,9.43
2023-01-15T02:01:16.559Z,9.48
2023-01-15T02:02:16.934Z,9.47
2023-01-15T02:03:16.523Z,9.51
2023-01-15T02:04:17.040Z,9.51
2023-01-15T02:05:16.521Z,9.53
2023-01-15T02:06:17.040Z,9.51
2023-01-15T02:07:16.594Z,9.53
2023-01-15T02:08:17.076Z,9.55
2023-01-15T02:09:16.580Z,9.59
2023-01-15T02:10:17.122Z,9.61
2023-01-15T02:11:16.647Z,9.59
2023-01-15T02:12:17.237Z,9.66
2023-01-15T02:13:16.735Z,9.65
2023-01-15T02:14:17.234Z,9.69
2023-01-15T02:15:16.756Z,9.69
2023-01-15T02:16:17.313Z,9.69
2023-01-15T02:17:16.951Z,9.71
2023-01-15T02:18:16.457Z,9.69
2023-01-15T02:19:16.964Z,9.76
2023-01-15T02:20:16.471Z,9.80
2023-01-15T02:21:16.981Z,9.80
2023-01-15T02:22:16.339Z,9.81
2023-01-15T02:23:16.878Z,9.82
2023-01-15T02:24:16.398Z,9.82
2023-01-15T02:25:16.905Z,9.82
2023-01-15T02:26:16.443Z,9.85
2023-01-15T02:27:16.963Z,9.82
2023-01-15T02:28:16.482Z,9.84
2023-01-15T02:29:17.019Z,9.84
2023-01-15T02:30:16.537Z,9.85
2023-01-15T02:31:17.107Z,9.84
2023-01-15T02:32:16.393Z,9.84
2023-01-15T02:33:16.899Z,9.84
2023-01-15T02:34:16.408Z,9.86
2023-01-15T02:35:16.905Z,9.89
2023-01-15T02:36:16.447Z,9.88
2023-01-15T02:37:16.960Z,9.91
2023-01-15T02:38:16.468Z,9.91
2023-01-15T02:39:16.995Z,9.89
2023-01-15T02:40:16.572Z,9.92
2023-01-15T02:41:17.063Z,9.93
2023-01-15T02:42:16.337Z,9.91
2023-01-15T02:43:16.841Z,9.95
2023-01-15T02:44:16.317Z,9.92
2023-01-15T02:45:16.829Z,9.93
2023-01-15T02:46:16.310Z,9.92
2023-01-15T02:47:16.786Z,9.93
2023-01-15T02:48:17.281Z,9.95
2023-01-15T02:49:16.773Z,9.96
2023-01-15T02:50:17.287Z,9.95
2023-01-15T02:51:16.791Z,9.98
2023-01-15T02:52:16.678Z,10.00
2023-01-15T02:53:17.170Z,10.02
2023-01-15T02:54:16.686Z,10.02
2023-01-15T02:55:17.182Z,10.00
2023-01-15T02:56:16.679Z,10.02
2023-01-15T02:57:17.203Z,10.02
2023-01-15T02:58:16.724Z,10.06
2023-01-15T02:59:17.277Z,10.08
2023-01-15T03:00:16.800Z,10.09
2023-01-15T03:01:17.395Z,10.03
2023-01-15T03:02:16.771Z,10.03
2023-01-15T03:03:16.442Z,10.02
2023-01-15T03:04:16.964Z,9.99
2023-01-15T03:05:16.481Z,9.98
2023-01-15T03:06:17.033Z,10.02
2023-01-15T03:07:16.533Z,10.02
2023-01-15T03:08:17.068Z,10.00
2023-01-15T03:09:16.595Z,10.03
2023-01-15T03:10:17.130Z,10.02
2023-01-15T03:11:16.631Z,10.06
2023-01-15T03:12:16.671Z,10.08
2023-01-15T03:13:17.263Z,10.05
2023-01-15T03:14:16.754Z,10.08
2023-01-15T03:15:17.244Z,10.09
2023-01-15T03:16:16.811Z,10.08
2023-01-15T03:17:16.330Z,10.09
2023-01-15T03:18:16.871Z,10.09
2023-01-15T03:19:16.426Z,10.10
2023-01-15T03:20:16.984Z,10.06
2023-01-15T03:21:16.506Z,10.08
2023-01-15T03:22:17.135Z,10.09
2023-01-15T03:23:16.629Z,10.10
2023-01-15T03:24:17.136Z,10.10
2023-01-15T03:25:16.610Z,10.12
2023-01-15T03:26:17.109Z,10.13
2023-01-15T03:27:16.618Z,10.12
2023-01-15T03:28:17.137Z,10.13
2023-01-15T03:29:16.661Z,10.13
2023-01-15T03:30:17.206Z,10.14
2023-01-15T03:31:16.711Z,10.14
2023-01-15T03:32:16.621Z,10.12
2023-01-15T03:33:17.143Z,10.09
2023-01-15T03:34:16.666Z,10.13
2023-01-15T03:35:17.156Z,10.10
2023-01-15T03:36:18.123Z,10.12
2023-01-15T03:37:16.723Z,10.16
2023-01-15T03:38:17.223Z,10.16
2023-01-15T03:39:16.723Z,10.16
2023-01-15T03:40:17.225Z,10.17
2023-01-15T03:41:16.705Z,10.23
2023-01-15T03:42:17.074Z,10.26
2023-01-15T03:43:16.578Z,10.26
2023-01-15T03:44:17.077Z,10.28
2023-01-15T03:45:16.589Z,10.27
2023-01-15T03:46:17.147Z,10.27
2023-01-15T03:47:16.731Z,10.27
2023-01-15T03:48:17.237Z,10.27
2023-01-15T03:49:16.748Z,10.26
2023-01-15T03:50:17.270Z,10.31
2023-01-15T03:51:16.747Z,10.31
2023-01-15T03:52:16.310Z,10.31
2023-01-15T03:53:16.810Z,10.33
2023-01-15T03:54:17.372Z,10.30
2023-01-15T03:55:17.036Z,10.31
2023-01-15T03:56:16.555Z,10.36
2023-01-15T03:57:17.380Z,10.38
2023-01-15T03:58:16.681Z,10.33
2023-01-15T03:59:17.209Z,10.36
2023-01-15T04:00:16.759Z,10.37
2023-01-15T04:01:17.330Z,10.38
2023-01-15T04:02:16.740Z,10.36
2023-01-15T04:03:16.362Z,10.34
2023-01-15T04:04:16.885Z,10.41
2023-01-15T04:05:16.479Z,10.40
2023-01-15T04:06:17.005Z,10.40
2023-01-15T04:07:16.489Z,10.34
2023-01-15T04:08:18.021Z,10.28
2023-01-15T04:09:16.609Z,10.28
2023-01-15T04:10:17.128Z,10.28
2023-01-15T04:11:16.626Z,10.27
2023-01-15T04:12:17.061Z,10.24
2023-01-15T04:13:16.557Z,10.24
2023-01-15T04:14:17.079Z,10.21
2023-01-15T04:15:16.590Z,10.17
2023-01-15T04:16:17.098Z,10.19
2023-01-15T04:17:16.614Z,10.20
2023-01-15T04:18:17.155Z,10.23
2023-01-15T04:19:16.703Z,10.19
2023-01-15T04:20:17.220Z,10.14
2023-01-15T04:21:16.710Z,10.10
2023-01-15T04:22:16.950Z,10.08
2023-01-15T04:23:16.443Z,10.06
2023-01-15T04:24:16.987Z,10.05
2023-01-15T04:25:16.488Z,10.05
2023-01-15T04:26:17.000Z,10.05
2023-01-15T04:27:16.485Z,10.00
2023-01-15T04:28:17.028Z,9.99
2023-01-15T04:29:16.548Z,10.02
2023-01-15T04:30:17.056Z,9.99
2023-01-15T04:31:16.597Z,9.95
2023-01-15T04:32:17.194Z,9.98
2023-01-15T04:33:16.710Z,10.00
2023-01-15T04:34:17.235Z,10.00
2023-01-15T04:35:16.716Z,9.96
2023-01-15T04:36:17.220Z,9.92
2023-01-15T04:37:16.704Z,9.86
2023-01-15T04:38:17.195Z,9.84
2023-01-15T04:39:16.683Z,9.84
2023-01-15T04:40:17.222Z,9.75
2023-01-15T04:41:16.708Z,9.74
2023-01-15T04:42:17.061Z,9.72
2023-01-15T04:43:16.562Z,9.66
2023-01-15T04:44:17.073Z,9.58
2023-01-15T04:45:16.613Z,9.59
2023-01-15T04:46:17.121Z,9.55
2023-01-15T04:47:16.646Z,9.54
2023-01-15T04:48:17.150Z,9.53
2023-01-15T04:49:16.655Z,9.53
2023-01-15T04:50:17.243Z,9.50
2023-01-15T04:51:16.755Z,9.50
2023-01-15T04:52:16.391Z,9.50
2023-01-15T04:53:16.936Z,9.50
2023-01-15T04:54:16.461Z,9.50
2023-01-15T04:55:17.033Z,9.50
2023-01-15T04:56:16.560Z,9.50
2023-01-15T04:57:17.081Z,9.54
2023-01-15T04:58:16.628Z,9.51
2023-01-15T04:59:17.104Z,9.51
2023-01-15T05:00:16.621Z,9.53
2023-01-15T05:01:17.204Z,9.53
2023-01-15T05:02:16.864Z,9.51
2023-01-15T05:03:16.599Z,9.51
2023-01-15T05:04:17.131Z,9.53
2023-01-15T05:05:16.740Z,9.59
2023-01-15T05:06:17.236Z,9.59
2023-01-15T05:07:16.762Z,9.61
2023-01-15T05:08:17.265Z,9.59
2023-01-15T05:09:16.790Z,9.59
2023-01-15T05:10:16.319Z,9.64
2023-01-15T05:11:16.847Z,9.66
2023-01-15T05:12:17.158Z,9.66
2023-01-15T05:13:16.657Z,9.66
2023-01-15T05:14:17.121Z,9.62
2023-01-15T05:15:16.622Z,9.61
2023-01-15T05:16:17.124Z,9.65
2023-01-15T05:17:16.651Z,9.66
2023-01-15T05:18:17.175Z,9.65
2023-01-15T05:19:16.677Z,9.65
2023-01-15T05:20:17.184Z,9.65
2023-01-15T05:21:16.697Z,9.69
2023-01-15T05:22:16.676Z,9.72
2023-01-15T05:23:17.189Z,9.71
2023-01-15T05:24:16.734Z,9.78
2023-01-15T05:25:17.263Z,9.78
2023-01-15T05:26:16.779Z,9.81
2023-01-15T05:27:17.283Z,9.82
2023-01-15T05:28:16.795Z,9.85
2023-01-15T05:29:17.272Z,9.82
2023-01-15T05:30:16.776Z,9.82
2023-01-15T05:31:17.303Z,9.84
2023-01-15T05:32:16.804Z,9.85
2023-01-15T05:33:16.314Z,9.91
2023-01-15T05:34:16.848Z,9.89
2023-01-15T05:35:16.361Z,9.93
2023-01-15T05:36:16.878Z,9.93
2023-01-15T05:37:16.417Z,9.92
2023-01-15T05:38:16.914Z,9.92
2023-01-15T05:39:16.424Z,9.99
2023-01-15T05:40:16.964Z,9.93
2023-01-15T05:41:16.488Z,9.95
2023-01-15T05:42:16.683Z,9.93
2023-01-15T05:43:17.164Z,9.92
2023-01-15T05:44:16.683Z,9.86
2023-01-15T05:45:17.178Z,9.86
2023-01-15T05:46:16.692Z,9.86
2023-01-15T05:47:17.271Z,9.84
2023-01-15T05:48:16.766Z,9.85
2023-01-15T05:49:17.273Z,9.84
2023-01-15T05:50:16.804Z,9.82
2023-01-15T05:51:16.308Z,9.81
2023-01-15T05:52:16.899Z,9.81
2023-01-15T05:53:16.416Z,9.78
2023-01-15T05:54:16.957Z,9.80
2023-01-15T05:55:16.448Z,9.81
2023-01-15T05:56:17.003Z,9.80
2023-01-15T05:57:16.505Z,9.74
2023-01-15T05:58:17.007Z,9.72
2023-01-15T05:59:16.494Z,9.71
2023-01-15T06:00:17.009Z,9.68
2023-01-15T06:01:16.560Z,9.66
2023-01-15T06:02:16.993Z,9.59
2023-01-15T06:03:16.490Z,9.55
2023-01-15T06:04:17.010Z,9.51
2023-01-15T06:05:16.511Z,9.51
2023-01-15T06:06:17.030Z,9.54
2023-01-15T06:07:16.568Z,9.58
2023-01-15T06:08:17.056Z,9.59
2023-01-15T06:09:16.543Z,9.55
2023-01-15T06:10:17.047Z,9.50
2023-01-15T06:11:16.567Z,9.51
2023-01-15T06:12:17.100Z,9.48
2023-01-15T06:13:16.568Z,9.43
2023-01-15T06:14:17.060Z,9.43
2023-01-15T06:15:16.568Z,9.36
2023-01-15T06:16:17.141Z,9.36
2023-01-15T06:17:16.810Z,9.33
2023-01-15T06:18:16.356Z,9.33
2023-01-15T06:19:16.921Z,9.33
2023-01-15T06:20:16.419Z,9.29
2023-01-15T06:21:16.947Z,9.27
2023-01-15T06:22:17.277Z,9.20
2023-01-15T06:23:16.782Z,9.08
2023-01-15T06:24:17.265Z,9.01
2023-01-15T06:25:16.767Z,9.01
2023-01-15T06:26:17.263Z,8.95
2023-01-15T06:27:16.765Z,8.95
2023-01-15T06:28:17.269Z,8.85
2023-01-15T06:29:16.788Z,8.75
2023-01-15T06:30:17.434Z,8.72
2023-01-15T06:31:16.993Z,8.72
2023-01-15T06:32:16.835Z,8.69
2023-01-15T06:33:16.338Z,8.64
2023-01-15T06:34:16.861Z,8.60
2023-01-15T06:35:16.360Z,8.58
2023-01-15T06:36:16.850Z,8.57
2023-01-15T06:37:16.358Z,8.54
2023-01-15T06:38:16.865Z,8.50
2023-01-15T06:39:16.359Z,8.44
2023-01-15T06:40:16.894Z,8.46
2023-01-15T06:41:16.415Z,8.44
2023-01-15T06:42:16.804Z,8.43
2023-01-15T06:43:16.305Z,8.39
2023-01-15T06:44:16.808Z,8.35
2023-01-15T06:45:16.343Z,8.33
2023-01-15T06:46:16.883Z,8.20
2023-01-15T06:47:16.505Z,8.19
2023-01-15T06:48:16.979Z,8.09
2023-01-15T06:49:16.485Z,8.02
2023-01-15T06:50:16.988Z,8.00
2023-01-15T06:51:16.492Z,8.00
2023-01-15T06:52:17.188Z,7.91
2023-01-15T06:53:16.685Z,7.90
2023-01-15T06:54:17.172Z,7.85
2023-01-15T06:55:16.660Z,7.76
2023-01-15T06:56:17.269Z,7.77
2023-01-15T06:57:16.800Z,7.73
2023-01-15T06:58:17.302Z,7.70
2023-01-15T06:59:16.820Z,7.63
2023-01-15T07:00:16.324Z,7.61
2023-01-15T07:01:16.976Z,7.60
2023-01-15T07:02:16.507Z,7.58
2023-01-15T07:03:17.014Z,7.57
2023-01-15T07:04:16.550Z,7.57
2023-01-15T07:05:17.177Z,7.56
2023-01-15T07:06:16.641Z,7.50
2023-01-15T07:07:17.164Z,7.51
2023-01-15T07:08:16.680Z,7.47
2023-01-15T07:09:17.192Z,7.46
2023-01-15T07:10:16.725Z,7.45
2023-01-15T07:11:17.248Z,7.42
2023-01-15T07:12:16.607Z,7.38
2023-01-15T07:13:17.102Z,7.35
2023-01-15T07:14:16.607Z,7.33
2023-01-15T07:15:17.100Z,7.32
2023-01-15T07:16:16.623Z,7.26
2023-01-15T07:17:17.191Z,7.21
2023-01-15T07:18:16.692Z,7.21
2023-01-15T07:19:17.193Z,7.11
2023-01-15T07:20:16.734Z,7.10
2023-01-15T07:21:17.217Z,7.05
2023-01-15T07:22:17.103Z,7.02
2023-01-15T07:23:16.839Z,7.00
2023-01-15T07:24:16.426Z,7.00
2023-01-15T07:25:16.977Z,7.00
2023-01-15T07:26:16.470Z,7.01
2023-01-15T07:27:16.978Z,7.02
2023-01-15T07:28:16.483Z,6.97
2023-01-15T07:29:16.988Z,6.95
2023-01-15T07:30:16.466Z,6.95
2023-01-15T07:31:17.040Z,6.93
2023-01-15T07:32:16.525Z,6.86
2023-01-15T07:33:17.025Z,6.87
2023-01-15T07:34:16.518Z,6.80
2023-01-15T07:35:17.036Z,6.72
2023-01-15T07:36:16.547Z,6.69
2023-01-15T07:37:17.065Z,6.66
2023-01-15T07:38:16.568Z,6.66
2023-01-15T07:39:17.089Z,6.61
2023-01-15T07:40:16.586Z,6.57
2023-01-15T07:41:17.111Z,6.53
2023-01-15T07:42:16.843Z,6.50
2023-01-15T07:43:16.367Z,6.48
2023-01-15T07:44:16.891Z,6.45
2023-01-15T07:45:16.371Z,6.40
2023-01-15T07:46:16.852Z,6.38
2023-01-15T07:47:16.394Z,6.35
2023-01-15T07:48:16.886Z,6.33
2023-01-15T07:49:16.370Z,6.33
2023-01-15T07:50:16.881Z,6.33
2023-01-15T07:51:16.387Z,6.31
2023-01-15T07:52:17.107Z,6.32
2023-01-15T07:53:16.614Z,6.32
2023-01-15T07:54:17.139Z,6.33
2023-01-15T07:55:16.650Z,6.31
2023-01-15T07:56:17.141Z,6.28
2023-01-15T07:57:16.665Z,6.25
2023-01-15T07:58:17.146Z,6.25
2023-01-15T07:59:16.655Z,6.21
2023-01-15T08:00:17.210Z,6.21
2023-01-15T08:01:16.794Z,6.24
2023-01-15T08:02:17.263Z,6.22
2023-01-15T08:03:16.797Z,6.20
2023-01-15T08:04:17.349Z,6.21
2023-01-15T08:05:16.974Z,6.24
2023-01-15T08:06:16.483Z,6.26
2023-01-15T08:07:16.999Z,6.22
2023-01-15T08:08:16.500Z,6.31
2023-01-15T08:09:17.024Z,6.31
2023-01-15T08:10:16.548Z,6.33
2023-01-15T08:11:17.026Z,6.31
2023-01-15T08:12:16.654Z,6.26
2023-01-15T08:13:17.143Z,6.24
2023-01-15T08:14:16.630Z,6.25
2023-01-15T08:15:17.102Z,6.24
2023-01-15T08:16:16.678Z,6.24
2023-01-15T08:17:17.206Z,6.21
2023-01-15T08:18:16.717Z,6.21
2023-01-15T08:19:17.236Z,6.18
2023-01-15T08:20:16.771Z,6.12
2023-01-15T08:21:17.290Z,6.18
2023-01-15T08:22:16.651Z,6.20
2023-01-15T08:23:17.138Z,6.17
2023-01-15T08:24:16.664Z,6.18
2023-01-15T08:25:17.175Z,6.05
2023-01-15T08:26:16.668Z,5.96
2023-01-15T08:27:17.199Z,5.98
2023-01-15T08:28:16.663Z,5.94
2023-01-15T08:29:17.172Z,5.89
2023-01-15T08:30:16.691Z,5.86
2023-01-15T08:31:17.226Z,5.79
2023-01-15T08:32:16.780Z,5.80
2023-01-15T08:33:17.305Z,5.85
2023-01-15T08:34:16.790Z,5.86
2023-01-15T08:35:17.355Z,5.90
2023-01-15T08:36:16.907Z,5.93
2023-01-15T08:37:16.403Z,5.86
2023-01-15T08:38:16.910Z,5.87
2023-01-15T08:39:16.437Z,5.92
2023-01-15T08:40:16.943Z,5.93
2023-01-15T08:41:16.433Z,5.89
2023-01-15T08:42:16.831Z,5.85
2023-01-15T08:43:16.372Z,5.80
2023-01-15T08:44:16.902Z,5.75
2023-01-15T08:45:16.424Z,5.85
2023-01-15T08:46:16.934Z,5.90
2023-01-15T08:47:16.440Z,5.79
2023-01-15T08:48:16.951Z,5.70
2023-01-15T08:49:16.486Z,5.68
2023-01-15T08:50:17.016Z,5.70
2023-01-15T08:51:16.479Z,5.73
2023-01-15T08:52:16.329Z,5.72
2023-01-15T08:53:16.823Z,5.75
2023-01-15T08:54:17.333Z,5.72
2023-01-15T08:55:16.794Z,5.77
2023-01-15T08:56:17.310Z,5.76
2023-01-15T08:57:16.839Z,5.68
2023-01-15T08:58:16.355Z,5.62
2023-01-15T08:59:16.894Z,5.65
2023-01-15T09:00:17.609Z,5.70
2023-01-15T09:01:17.417Z,5.66
2023-01-15T09:02:16.358Z,5.61
2023-01-15T09:03:16.913Z,5.57
2023-01-15T09:04:16.421Z,5.70
2023-01-15T09:05:16.944Z,5.57
2023-01-15T09:06:16.461Z,5.55
2023-01-15T09:07:17.055Z,5.49
2023-01-15T09:08:16.584Z,5.58
2023-01-15T09:09:17.086Z,5.63
2023-01-15T09:10:16.631Z,5.62
2023-01-15T09:11:17.139Z,5.53
2023-01-15T09:12:16.981Z,5.49
2023-01-15T09:13:16.492Z,5.52
2023-01-15T09:14:56.135Z,5.58
2023-01-15T09:15:16.519Z,5.65
2023-01-15T09:16:17.034Z,5.69
2023-01-15T09:17:16.615Z,5.69
2023-01-15T09:18:17.130Z,5.75
2023-01-15T09:19:16.639Z,5.80
2023-01-15T09:20:17.127Z,5.76
2023-01-15T09:21:16.671Z,5.79
2023-01-15T09:22:16.410Z,5.79
2023-01-15T09:23:16.935Z,5.68
2023-01-15T09:24:16.413Z,5.66
2023-01-15T09:25:16.930Z,5.73
2023-01-15T09:26:16.421Z,5.73
2023-01-15T09:27:16.973Z,5.79
2023-01-15T09:28:16.467Z,5.76
2023-01-15T09:29:16.976Z,5.73
2023-01-15T09:30:16.457Z,5.72
2023-01-15T09:31:17.028Z,5.69
2023-01-15T09:32:16.603Z,5.70
2023-01-15T09:33:17.117Z,5.63
2023-01-15T09:34:16.617Z,5.59
2023-01-15T09:35:17.113Z,5.69
2023-01-15T09:36:16.689Z,5.72
2023-01-15T09:37:17.173Z,5.69
2023-01-15T09:38:16.658Z,5.62
2023-01-15T09:39:17.177Z,5.65
2023-01-15T09:40:16.695Z,5.61
2023-01-15T09:41:17.218Z,5.62
2023-01-15T09:42:16.809Z,5.61
2023-01-15T09:43:16.294Z,5.63
2023-01-15T09:44:16.799Z,5.62
2023-01-15T09:45:17.319Z,5.70
2023-01-15T09:46:16.830Z,5.70
2023-01-15T09:47:16.353Z,5.73
2023-01-15T09:48:18.277Z,5.70
2023-01-15T09:49:16.878Z,5.73
2023-01-15T09:50:16.395Z,5.73
2023-01-15T09:51:16.902Z,5.75
2023-01-15T09:52:17.108Z,5.69
2023-01-15T09:53:16.590Z,5.69
2023-01-15T09:54:18.115Z,5.68
2023-01-15T09:55:16.749Z,5.55
2023-01-15T09:56:17.290Z,5.57
2023-01-15T09:57:16.795Z,5.48
2023-01-15T09:58:17.291Z,5.48
2023-01-15T09:59:16.777Z,5.45
2023-01-15T10:00:17.288Z,5.42
2023-01-15T10:01:16.802Z,5.39
2023-01-15T10:02:17.200Z,5.46
2023-01-15T10:03:16.808Z,5.48
2023-01-15T10:04:16.477Z,5.43
2023-01-15T10:05:17.073Z,5.31
2023-01-15T10:06:16.587Z,5.27
2023-01-15T10:07:17.081Z,5.21
2023-01-15T10:08:16.580Z,5.17
2023-01-15T10:09:17.097Z,5.15
2023-01-15T10:10:18.174Z,5.20
2023-01-15T10:11:16.838Z,5.21
2023-01-15T10:12:16.472Z,5.18
2023-01-15T10:13:16.966Z,5.18
2023-01-15T10:14:16.487Z,5.08
2023-01-15T10:15:17.122Z,5.04
2023-01-15T10:16:16.629Z,5.04
2023-01-15T10:17:16.362Z,5.03
2023-01-15T10:18:16.862Z,4.97
2023-01-15T10:19:16.349Z,4.93
2023-01-15T10:20:16.843Z,5.06
2023-01-15T10:21:16.342Z,5.04
2023-01-15T10:22:17.229Z,5.07
2023-01-15T10:23:16.735Z,5.08
2023-01-15T10:24:17.250Z,5.13
2023-01-15T10:25:16.743Z,5.15
2023-01-15T10:26:17.236Z,5.07
2023-01-15T10:27:16.792Z,5.00
2023-01-15T10:28:18.127Z,5.10
2023-01-15T10:29:16.789Z,5.13
2023-01-15T10:30:17.328Z,5.10
2023-01-15T10:31:16.879Z,5.06
2023-01-15T10:32:16.487Z,5.14
2023-01-15T10:33:16.978Z,5.17
2023-01-15T10:34:16.508Z,5.17
2023-01-15T10:35:17.030Z,4.97
2023-01-15T10:36:16.553Z,4.92
2023-01-15T10:37:17.087Z,4.99
2023-01-15T10:38:16.617Z,4.87
2023-01-15T10:39:17.123Z,4.83
2023-01-15T10:40:16.611Z,4.83
2023-01-15T10:41:17.136Z,4.80
2023-01-15T10:42:16.806Z,4.87
2023-01-15T10:43:16.290Z,4.92
2023-01-15T10:44:16.822Z,4.83
2023-01-15T10:45:16.352Z,4.90
2023-01-15T10:46:16.887Z,4.89
2023-01-15T10:47:16.504Z,4.93
2023-01-15T10:48:17.007Z,4.96
2023-01-15T10:49:16.517Z,5.00
2023-01-15T10:50:17.111Z,4.99
2023-01-15T10:51:16.806Z,5.00
2023-01-15T10:52:16.964Z,4.93
2023-01-15T10:53:16.483Z,5.02
2023-01-15T10:54:17.041Z,5.06
2023-01-15T10:55:16.574Z,4.93
2023-01-15T10:56:17.079Z,4.96
2023-01-15T10:57:16.590Z,4.89
2023-01-15T10:58:17.086Z,4.82
2023-01-15T10:59:16.581Z,4.82
2023-01-15T11:00:17.149Z,4.93
2023-01-15T11:01:17.132Z,4.97
2023-01-15T11:02:17.321Z,5.02
2023-01-15T11:03:17.083Z,4.97
2023-01-15T11:04:16.614Z,4.97
2023-01-15T11:05:17.129Z,4.96
2023-01-15T11:06:16.616Z,5.00
2023-01-15T11:07:17.177Z,5.06
2023-01-15T11:08:48.444Z,5.06
2023-01-15T11:09:17.206Z,5.03
2023-01-15T11:10:16.844Z,5.03
2023-01-15T11:11:16.451Z,5.00
2023-01-15T11:12:16.801Z,5.04
2023-01-15T11:13:17.278Z,5.00
2023-01-15T11:14:16.780Z,5.07
2023-01-15T11:15:17.312Z,5.08
2023-01-15T11:16:16.829Z,5.04
2023-01-15T11:17:16.354Z,5.14
2023-01-15T11:18:16.858Z,5.25
2023-01-15T11:19:16.389Z,5.25
2023-01-15T11:20:16.518Z,5.28
2023-01-15T11:21:17.131Z,5.17
2023-01-15T11:22:16.458Z,5.24
2023-01-15T11:23:16.965Z,5.15
2023-01-15T11:24:16.476Z,5.07
2023-01-15T11:25:17.007Z,5.11
2023-01-15T11:26:16.526Z,5.11
2023-01-15T11:27:17.054Z,5.17
2023-01-15T11:28:16.556Z,5.17
2023-01-15T11:29:17.064Z,5.17
2023-01-15T11:30:16.576Z,5.13
2023-01-15T11:31:17.198Z,4.96
2023-01-15T11:32:16.480Z,4.89
2023-01-15T11:33:17.090Z,4.95
2023-01-15T11:34:16.627Z,4.93
2023-01-15T11:35:17.137Z,4.90
2023-01-15T11:36:16.614Z,4.90
2023-01-15T11:37:17.129Z,4.89
2023-01-15T11:38:16.644Z,4.83
2023-01-15T11:39:17.147Z,4.82
2023-01-15T11:40:16.621Z,4.83
2023-01-15T11:41:17.132Z,4.83
2023-01-15T11:42:16.739Z,4.86
2023-01-15T11:43:17.260Z,4.86
2023-01-15T11:44:16.818Z,4.86
2023-01-15T11:45:17.367Z,4.87
2023-01-15T11:46:16.904Z,4.83
2023-01-15T11:47:16.475Z,4.85
2023-01-15T11:48:16.951Z,4.82
2023-01-15T11:49:16.463Z,4.86
2023-01-15T11:50:16.960Z,4.87
2023-01-15T11:51:16.449Z,4.93
2023-01-15T11:52:17.219Z,4.99
2023-01-15T11:53:18.445Z,5.06
2023-01-15T11:54:17.138Z,4.99
2023-01-15T11:55:16.651Z,4.97
2023-01-15T11:56:17.174Z,4.99
2023-01-15T11:57:16.728Z,4.96
2023-01-15T11:58:17.239Z,4.89
2023-01-15T11:59:16.736Z,4.92
2023-01-15T12:00:17.290Z,4.95
2023-01-15T12:01:16.835Z,4.93
2023-01-15T12:02:16.727Z,4.89
2023-01-15T12:03:17.273Z,4.93
2023-01-15T12:04:16.916Z,5.00
2023-01-15T12:05:16.590Z,5.06
2023-01-15T12:06:17.090Z,5.03
2023-01-15T12:07:16.582Z,4.93
2023-01-15T12:08:17.115Z,4.99
2023-01-15T12:09:16.603Z,5.02
2023-01-15T12:10:17.123Z,5.00
2023-01-15T12:11:26.146Z,5.07
2023-01-15T12:12:17.113Z,5.07
2023-01-15T12:13:16.669Z,5.04
2023-01-15T12:14:17.203Z,5.07
2023-01-15T12:15:16.707Z,5.14
2023-01-15T12:16:17.232Z,5.15
2023-01-15T12:17:16.782Z,5.17
2023-01-15T12:18:17.283Z,5.17
2023-01-15T12:19:16.783Z,5.18
2023-01-15T12:20:17.312Z,5.24
2023-01-15T12:21:16.814Z,5.24
2023-01-15T12:22:16.453Z,5.23
2023-01-15T12:23:17.023Z,5.23
2023-01-15T12:24:16.527Z,5.23
2023-01-15T12:25:17.080Z,5.27
2023-01-15T12:26:16.603Z,5.28
2023-01-15T12:27:17.128Z,5.31
2023-01-15T12:28:16.642Z,5.30
2023-01-15T12:29:17.155Z,5.32
2023-01-15T12:30:16.697Z,5.32
2023-01-15T12:31:17.224Z,5.35
2023-01-15T12:32:16.778Z,5.31
2023-01-15T12:33:17.284Z,5.31
2023-01-15T12:34:16.811Z,5.32
2023-01-15T12:35:16.315Z,5.27
2023-01-15T12:36:16.871Z,5.27
2023-01-15T12:37:16.390Z,5.27
2023-01-15T12:38:16.889Z,5.23
2023-01-15T12:39:16.376Z,5.24
2023-01-15T12:40:16.875Z,5.25
2023-01-15T12:41:16.431Z,5.24
2023-01-15T12:42:16.860Z,5.25
2023-01-15T12:43:16.350Z,5.27
2023-01-15T12:44:16.846Z,5.24
2023-01-15T12:45:16.322Z,5.23
2023-01-15T12:46:16.922Z,5.23
2023-01-15T12:47:16.510Z,5.21
2023-01-15T12:48:17.018Z,5.21
2023-01-15T12:49:16.561Z,5.21
2023-01-15T12:50:17.083Z,5.21
2023-01-15T12:51:16.707Z,5.18
2023-01-15T12:52:17.126Z,5.15
2023-01-15T12:53:16.644Z,5.13
2023-01-15T12:54:17.294Z,5.06
2023-01-15T12:55:16.804Z,5.14
2023-01-15T12:56:17.315Z,5.14
2023-01-15T12:57:16.862Z,5.18
2023-01-15T12:58:16.344Z,5.20
2023-01-15T12:59:16.817Z,5.23
2023-01-15T13:00:16.346Z,5.24
2023-01-15T13:01:16.944Z,5.25
2023-01-15T13:02:17.354Z,5.04
2023-01-15T13:03:16.964Z,4.87
2023-01-15T13:04:16.594Z,4.73
2023-01-15T13:05:17.120Z,4.62
2023-01-15T13:06:16.651Z,4.67
2023-01-15T13:07:17.159Z,4.61
2023-01-15T13:08:16.685Z,4.55
2023-01-15T13:09:17.191Z,4.54
2023-01-15T13:10:16.696Z,4.48
2023-01-15T13:11:17.168Z,4.37
2023-01-15T13:12:17.072Z,4.44
2023-01-15T13:13:16.575Z,4.41
2023-01-15T13:14:17.094Z,4.48
2023-01-15T13:15:16.609Z,4.58